Skip Navigation Links
NOAA logo - Click to go to the NOAA homepage
NOAA's National Weather Service
Alaska Aviation Weather Unit
  NWS logo - Click to go to the NWS homepage
Left Navbar Graphic     23 AKDT = 07 GMT

   
NOAA is celebrating 200 years of science, service, and stewardship. Visit the NOAA 200th celebration Web site to learn more.
USA.gov is the U.S. Government's official Web portal to all Federal, state and local government Web resources and services.
Facebook
NWS on Facebook

Important Change Regarding the AAWU Web Presence

 

Over the last several months, the AAWU has been working to navigate its webpages to a nationally supported server. Security, as well as other needs, have necessitated the change.  In the process, we have made an effort to enhance the functionality of our website, as well as some of our products. As of June 20, 2017, aawu.arh.noaa.gov will be discontinued. The new AAWU web address is weather.gov/aawu. It is now live and will run in-parallel with the old site until it is discontinued. Please send any feedback or questions regarding the new webpages to nws.ar.aawu.webauthors@noaa.gov.  Thank you for your patience during this time of transition.
AAWU Home :: Display TAF Add Bookmark
TAF PASC 240532Z 2406/2506 06004KT 2SM BR BKN004 OVC008
     FM241000 07005KT 1 1/2SM -RASN BR OVC003
     FM241800 08005KT 1 1/2SM -SHRA BR OVC003
     FM242000 08007KT 4SM BR OVC003=

METAR PASC 240153Z 04009KT 4SM BR BKN005 OVC017 01/00 A2987= PASC 240214Z 04009KT 2 1/2SM BR OVC004 01/00 A2987= SPECI PASC 240214Z 04009KT 2 1/2SM BR OVC004 01/00 A2987 RMK AO2 T00060000= PASC 240225Z 04009KT 1 1/4SM R05/5000VP6000FT BR OVC004 01/00 A2987= SPECI PASC 240225Z 04009KT 1 1/4SM R05/5000VP6000FT BR OVC004 01/00 A2987 RMK AO2 T00060000= PASC 240250Z 05010KT 2SM R05/5000VP6000FT BR OVC004 01/00 A2987= SPECI PASC 240250Z 05010KT 2SM R05/5000VP6000FT BR OVC004 01/00 A2987 RMK AO2= METAR PASC 240253Z 05009KT 1 1/4SM R05/4500VP6000FT BR OVC004 01/00 A2987= PASC 240306Z 05008KT 3SM BR OVC004 01/00 A2987= SPECI PASC 240306Z 05008KT 3SM BR OVC004 01/00 A2987 RMK AO2 T00060000= PASC 240321Z 06007KT 3SM BR OVC006 01/00 A2988= SPECI PASC 240321Z 06007KT 3SM BR OVC006 01/00 A2988 RMK AO2 T00060000= PASC 240328Z 06007KT 4SM BR BKN004 OVC008 01/00 A2988= SPECI PASC 240328Z 06007KT 4SM BR BKN004 OVC008 01/00 A2988 RMK AO2 T00060000= METAR PASC 240353Z 06007KT 4SM BR BKN004 OVC010 01/00 A2988= PASC 240400Z 06006KT 5SM BR SCT004 OVC010 01/00 A2988= SPECI PASC 240400Z 06006KT 5SM BR SCT004 OVC010 01/00 A2988 RMK AO2 T00060000= PASC 240428Z 06005KT 2 1/2SM BR SCT004 OVC010 01/00 A2988= SPECI PASC 240428Z 06005KT 2 1/2SM BR SCT004 OVC010 01/00 A2988 RMK AO2 T00060000= METAR PASC 240453Z 06005KT 1 1/4SM R05/4500VP6000FT BR SCT004 OVC010 01/00 A2988= PASC 240500Z 06005KT 1 1/2SM R05/4500VP6000FT BR OVC005 01/00 A2988= SPECI PASC 240500Z 06005KT 1 1/2SM R05/4500VP6000FT BR OVC005 01/00 A2988 RMK AO2 T00060000= PASC 240510Z 06004KT 2SM BR BKN004 OVC008 01/00 A2988= SPECI PASC 240510Z 06004KT 2SM BR BKN004 OVC008 01/00 A2988 RMK AO2 T00060000= PASC 240532Z 06004KT 1 1/4SM R05/6000VP6000FT BR SCT004 OVC008 01/00 A2988= SPECI PASC 240532Z 06004KT 1 1/4SM R05/6000VP6000FT BR SCT004 OVC008 01/00 A2988 RMK AO2 T00060000= METAR PASC 240553Z 06006KT 1SM R05/5000V6000FT BR OVC005 01/00 A2988= PASC 240640Z 06006KT 1SM R05/4500VP6000FT BR VV004 01/00 A2988= SPECI PASC 240640Z 06006KT 1SM R05/4500VP6000FT BR VV004 01/00 A2988 RMK AO2 T00060000= METAR PASC 240653Z 06005KT 1SM R05/5000VP6000FT BR VV004 01/00 A2988= PASC 240706Z 06005KT 3/4SM R05/4000V5500FT BR VV004 01/00 A2989= SPECI PASC 240706Z 06005KT 3/4SM R05/4000V5500FT BR VV004 01/00 A2989 RMK AO2 T00060000=
 Alaska TAF Map

NOAA's National Weather Service
Alaska Aviation Weather Unit
6930 Sand Lake Road
Anchorage, AK 99502-1845
Disclaimer
Credits
Glossary
Privacy Policy
About Us
Career Opportunities
Contact AAWU Internet Services Site last modified: April, 17th 2012